Time;durP1;ratioP1;P1;durP2;ratioP2;P2;SDS_P1;SDS_P2;PMS_P1;PMS_P2;Temp;Humidity;BMP_temperature;BMP_pressure;BME280_temperature;BME280_humidity;BME280_pressure;Samples;Min_cycle;Max_cycle;Signal;HPM_P1;HPM_P2
2023/01/23 00:01:58;;;;;;;28.03;16.33;;;-3.30;96.30;;;;;;4985796;28;20203;-83
2023/01/23 00:04:25;;;;;;;28.50;16.63;;;-3.40;96.40;;;;;;4983011;28;20216;-83
2023/01/23 00:06:51;;;;;;;28.97;16.40;;;-3.50;96.70;;;;;;4984828;28;20295;-83
2023/01/23 00:09:19;;;;;;;27.07;16.00;;;-3.50;96.80;;;;;;4991147;28;23062;-83
2023/01/23 00:11:46;;;;;;;27.90;15.93;;;-3.50;97.20;;;;;;4993803;28;20203;-83
2023/01/23 00:14:13;;;;;;;24.70;14.83;;;-3.30;96.40;;;;;;4986570;28;20298;-82
2023/01/23 00:16:40;;;;;;;29.67;16.23;;;-3.20;95.80;;;;;;4986750;28;20682;-83
2023/01/23 00:19:07;;;;;;;28.53;15.10;;;-3.30;95.30;;;;;;4989678;28;20208;-83
2023/01/23 00:21:34;;;;;;;24.63;15.20;;;-3.50;95.50;;;;;;4993187;28;20222;-82
2023/01/23 00:24:01;;;;;;;25.13;14.97;;;-3.60;95.60;;;;;;4992308;28;20208;-83
2023/01/23 00:26:32;;;;;;;24.63;14.03;;;-3.70;95.80;;;;;;4985988;28;20200;-83
2023/01/23 00:28:59;;;;;;;22.37;13.57;;;-3.80;95.80;;;;;;4967186;28;20205;-83
2023/01/23 00:31:28;;;;;;;23.03;14.33;;;-3.90;95.90;;;;;;4981886;28;20212;-83
2023/01/23 00:33:57;;;;;;;26.17;14.87;;;-4.00;96.20;;;;;;4989909;28;20210;-83
2023/01/23 00:36:28;;;;;;;26.50;14.87;;;-4.10;96.50;;;;;;4991170;28;20604;-84
2023/01/23 00:38:54;;;;;;;23.70;14.73;;;-4.20;96.90;;;;;;4980315;28;20661;-84
2023/01/23 00:41:21;;;;;;;29.03;15.27;;;-4.20;97.10;;;;;;4981887;28;20225;-84
2023/01/23 00:43:51;;;;;;;23.77;14.53;;;-4.20;97.30;;;;;;4979474;28;20219;-84
2023/01/23 00:46:18;;;;;;;24.90;15.30;;;-4.20;97.60;;;;;;4985399;28;20230;-84
2023/01/23 00:48:44;;;;;;;27.87;15.93;;;-4.20;97.80;;;;;;4983200;28;20568;-83
2023/01/23 00:51:11;;;;;;;27.30;15.23;;;-4.10;97.90;;;;;;4990724;28;20233;-84
2023/01/23 00:53:38;;;;;;;25.77;14.50;;;-4.10;97.80;;;;;;4978803;28;20669;-84
2023/01/23 00:56:06;;;;;;;25.17;14.80;;;-4.10;97.70;;;;;;4972889;28;20224;-82
2023/01/23 00:58:33;;;;;;;24.43;14.20;;;-4.00;97.60;;;;;;4991275;28;20200;-82
2023/01/23 01:01:01;;;;;;;23.77;15.07;;;-3.80;97.40;;;;;;4983984;28;20255;-82
2023/01/23 01:03:28;;;;;;;25.90;14.80;;;-3.80;96.90;;;;;;4981373;28;20203;-82
2023/01/23 01:05:55;;;;;;;25.60;15.63;;;-3.70;96.90;;;;;;4989360;28;20203;-82
2023/01/23 01:08:22;;;;;;;26.40;15.30;;;-3.70;96.80;;;;;;4992892;28;20210;-82
2023/01/23 01:10:49;;;;;;;24.23;14.50;;;-3.70;96.90;;;;;;4990752;28;21089;-82
2023/01/23 01:13:18;;;;;;;23.47;14.50;;;-3.60;96.90;;;;;;4977904;28;20211;-82
2023/01/23 01:15:45;;;;;;;26.13;15.53;;;-3.50;96.70;;;;;;4987815;28;20289;-82
2023/01/23 01:18:13;;;;;;;24.03;14.63;;;-3.40;96.60;;;;;;4988001;28;20214;-81
2023/01/23 01:20:41;;;;;;;27.03;15.57;;;-3.40;96.80;;;;;;4985763;28;20220;-81
2023/01/23 01:23:08;;;;;;;26.60;15.23;;;-3.30;96.80;;;;;;4985259;28;20236;-81
2023/01/23 01:25:36;;;;;;;24.97;15.13;;;-3.20;96.80;;;;;;4985260;28;20310;-82
2023/01/23 01:28:03;;;;;;;22.00;13.53;;;-3.10;96.40;;;;;;4985104;28;20193;-82
2023/01/23 01:30:30;;;;;;;23.17;14.40;;;-2.90;96.00;;;;;;4978756;28;20200;-82
2023/01/23 01:32:57;;;;;;;23.13;14.50;;;-2.90;96.00;;;;;;4988826;28;20208;-81
2023/01/23 01:35:25;;;;;;;27.33;16.10;;;-2.80;96.00;;;;;;4987956;28;20669;-81
2023/01/23 01:37:52;;;;;;;23.07;14.27;;;-2.70;95.40;;;;;;4985459;28;20211;-82
2023/01/23 01:40:21;;;;;;;24.57;15.70;;;-2.80;95.40;;;;;;4986741;28;20227;-82
2023/01/23 01:42:52;;;;;;;25.27;15.13;;;-2.90;95.30;;;;;;4990469;28;20204;-81
2023/01/23 01:45:57;;;;;;;27.17;15.80;;;-3.00;96.00;;;;;;4991515;28;20196;-81
2023/01/23 01:48:26;;;;;;;27.77;15.50;;;-2.90;96.30;;;;;;4982844;28;20196;-82
2023/01/23 01:50:55;;;;;;;32.27;17.73;;;-2.90;96.80;;;;;;4982800;28;20204;-82
2023/01/23 01:53:25;;;;;;;27.40;16.80;;;-2.80;97.10;;;;;;4982897;28;20243;-81
2023/01/23 01:55:53;;;;;;;30.70;17.80;;;-2.80;97.50;;;;;;4982843;28;20207;-81
2023/01/23 01:58:20;;;;;;;28.47;17.17;;;-2.80;97.80;;;;;;4983047;28;20204;-81
2023/01/23 02:00:47;;;;;;;27.87;16.77;;;-2.60;97.90;;;;;;4980578;28;20596;-81
2023/01/23 02:03:15;;;;;;;29.87;18.33;;;-2.60;97.70;;;;;;4987468;28;20215;-82
2023/01/23 02:05:45;;;;;;;26.87;16.97;;;-2.50;97.70;;;;;;4986618;28;20640;-82
2023/01/23 02:08:20;;;;;;;29.87;17.70;;;-2.40;97.70;;;;;;4987629;28;20215;-81
2023/01/23 02:10:47;;;;;;;30.93;17.87;;;-2.30;97.30;;;;;;4987530;28;20218;-82
2023/01/23 02:13:23;;;;;;;30.63;18.40;;;-2.30;97.20;;;;;;4987522;28;20210;-81
2023/01/23 02:15:51;;;;;;;25.00;16.40;;;-2.30;97.10;;;;;;4989718;28;20285;-81
2023/01/23 02:18:18;;;;;;;31.83;18.10;;;-2.30;97.20;;;;;;4990164;28;20205;-82
2023/01/23 02:20:46;;;;;;;29.53;17.53;;;-2.20;96.70;;;;;;4978557;28;20735;-82
2023/01/23 02:23:24;;;;;;;28.17;16.97;;;-2.10;96.70;;;;;;4982916;28;20290;-82
2023/01/23 02:25:57;;;;;;;30.67;17.47;;;-2.10;96.50;;;;;;4987246;28;20574;-81
2023/01/23 02:28:37;;;;;;;30.17;16.73;;;-2.10;96.50;;;;;;4979247;28;20222;-81
2023/01/23 02:31:04;;;;;;;29.17;16.93;;;-2.00;96.20;;;;;;4979541;28;20554;-81
2023/01/23 02:33:50;;;;;;;28.20;17.07;;;-2.10;96.30;;;;;;4986273;28;20266;-82
2023/01/23 02:36:19;;;;;;;31.60;18.90;;;-2.00;96.50;;;;;;4991155;28;20204;-82
2023/01/23 02:38:53;;;;;;;30.50;18.33;;;-2.10;96.40;;;;;;4981221;28;20206;-82
2023/01/23 02:41:27;;;;;;;32.80;18.63;;;-2.20;96.60;;;;;;5001118;28;20222;-81
2023/01/23 02:43:57;;;;;;;30.83;18.77;;;-2.20;96.80;;;;;;4993354;28;20210;-81
2023/01/23 02:46:24;;;;;;;31.10;17.67;;;-2.20;96.80;;;;;;4986809;28;20207;-82
2023/01/23 02:48:51;;;;;;;30.27;17.90;;;-2.10;97.40;;;;;;4978630;28;20201;-82
2023/01/23 02:51:19;;;;;;;30.83;17.93;;;-2.00;96.70;;;;;;4984290;28;20204;-82
2023/01/23 02:53:46;;;;;;;27.87;17.20;;;-1.90;96.70;;;;;;4984239;28;20294;-82
2023/01/23 02:56:14;;;;;;;29.77;17.47;;;-1.80;96.30;;;;;;4979142;28;20204;-82
2023/01/23 03:01:27;;;;;;;31.60;18.33;;;-1.80;95.70;;;;;;4983881;28;20924;-82
2023/01/23 03:03:55;;;;;;;27.73;17.40;;;-1.90;95.90;;;;;;4988791;28;20204;-82
2023/01/23 03:06:23;;;;;;;27.00;17.13;;;-2.00;96.00;;;;;;4982102;28;20683;-81
2023/01/23 03:08:50;;;;;;;29.40;18.13;;;-2.00;96.20;;;;;;4986566;28;20207;-82
2023/01/23 03:11:19;;;;;;;30.07;17.63;;;-2.10;96.20;;;;;;4979870;28;20202;-82
2023/01/23 03:13:47;;;;;;;29.47;18.00;;;-2.00;96.60;;;;;;4980765;28;20199;-82
2023/01/23 03:16:15;;;;;;;28.87;17.57;;;-2.00;96.50;;;;;;4980906;28;20647;-82
2023/01/23 03:18:42;;;;;;;30.77;18.43;;;-2.10;96.60;;;;;;4985050;28;20300;-81
2023/01/23 03:21:09;;;;;;;30.53;17.27;;;-2.10;96.70;;;;;;4987744;28;20726;-82
2023/01/23 03:23:40;;;;;;;30.30;17.40;;;-2.00;97.00;;;;;;4979385;28;20698;-82
2023/01/23 03:26:07;;;;;;;28.90;17.23;;;-1.90;96.40;;;;;;4977607;28;20229;-82
2023/01/23 03:31:20;;;;;;;29.93;17.90;;;-1.90;96.70;;;;;;4980858;28;20268;-82
2023/01/23 03:33:47;;;;;;;28.50;17.50;;;-1.90;96.80;;;;;;4983548;28;20219;-81
2023/01/23 03:36:14;;;;;;;30.17;18.23;;;-1.90;96.90;;;;;;4989858;28;20198;-81
2023/01/23 03:41:23;;;;;;;27.20;16.27;;;-1.90;96.90;;;;;;4984197;28;20585;-82
2023/01/23 03:41:28;;;;;;;27.60;16.93;;;-1.80;96.80;;;;;;4980914;28;20309;-82
2023/01/23 03:43:55;;;;;;;27.67;17.13;;;-1.80;96.30;;;;;;4983965;28;20200;-82
2023/01/23 03:46:24;;;;;;;27.53;16.30;;;-1.80;96.30;;;;;;4990899;28;20204;-82
2023/01/23 03:48:51;;;;;;;26.80;16.93;;;-1.80;96.30;;;;;;4984543;28;20204;-82
2023/01/23 03:51:18;;;;;;;28.07;17.27;;;-1.80;96.50;;;;;;4976751;28;20203;-81
2023/01/23 03:53:45;;;;;;;28.33;17.53;;;-1.80;96.80;;;;;;4987488;28;20206;-82
2023/01/23 03:56:12;;;;;;;26.43;16.50;;;-1.80;96.80;;;;;;4990946;28;20210;-82
2023/01/23 03:58:38;;;;;;;27.83;16.70;;;-1.80;96.90;;;;;;4987232;28;20200;-82
2023/01/23 04:01:07;;;;;;;28.63;16.83;;;-1.80;96.70;;;;;;4986126;28;20471;-82
2023/01/23 04:03:35;;;;;;;26.93;16.77;;;-1.70;96.60;;;;;;4982120;28;20195;-82
2023/01/23 04:06:02;;;;;;;27.87;16.60;;;-1.70;96.30;;;;;;4985801;28;20195;-81
2023/01/23 04:08:29;;;;;;;27.33;17.03;;;-1.70;96.50;;;;;;4987720;28;20277;-82
2023/01/23 04:11:04;;;;;;;28.87;16.50;;;-1.60;96.30;;;;;;4983178;28;20621;-81
2023/01/23 04:13:31;;;;;;;28.30;16.80;;;-1.60;96.10;;;;;;4984795;28;20202;-81
2023/01/23 04:15:58;;;;;;;30.50;17.93;;;-1.70;96.10;;;;;;4987461;28;20243;-81
2023/01/23 04:18:25;;;;;;;27.00;15.90;;;-1.70;96.30;;;;;;4982093;28;20196;-81
2023/01/23 04:20:54;;;;;;;28.07;17.60;;;-1.70;96.30;;;;;;4978098;28;20221;-82
2023/01/23 04:23:21;;;;;;;26.17;16.40;;;-1.60;96.30;;;;;;4978046;28;20239;-81
2023/01/23 04:25:48;;;;;;;26.03;16.47;;;-1.50;96.30;;;;;;4985187;28;20255;-82
2023/01/23 04:28:15;;;;;;;25.80;15.67;;;-1.40;96.00;;;;;;4975563;28;20204;-82
2023/01/23 04:30:42;;;;;;;26.60;15.77;;;-1.30;95.50;;;;;;4982461;28;20204;-81
2023/01/23 04:33:09;;;;;;;27.87;16.47;;;-1.30;95.60;;;;;;4988427;28;20973;-82
2023/01/23 04:35:36;;;;;;;25.70;16.03;;;-1.40;95.70;;;;;;4986617;28;20202;-82
2023/01/23 04:38:04;;;;;;;24.50;16.07;;;-1.50;95.80;;;;;;4987278;28;20637;-81
2023/01/23 04:40:31;;;;;;;26.53;16.83;;;-1.40;95.80;;;;;;4978279;28;20205;-82
2023/01/23 04:42:58;;;;;;;29.07;17.20;;;-1.50;95.80;;;;;;4985717;28;20593;-81
2023/01/23 04:45:25;;;;;;;27.83;16.67;;;-1.50;96.30;;;;;;4988022;28;20277;-82
2023/01/23 04:47:52;;;;;;;27.37;16.83;;;-1.50;96.30;;;;;;4987528;28;20210;-81
2023/01/23 04:50:19;;;;;;;27.33;16.50;;;-1.50;96.10;;;;;;4984438;28;20691;-82
2023/01/23 04:52:45;;;;;;;25.13;16.23;;;-1.40;96.10;;;;;;4983265;28;20213;-82
2023/01/23 04:55:14;;;;;;;24.47;16.13;;;-1.50;95.90;;;;;;4983242;28;20214;-81
2023/01/23 04:57:41;;;;;;;24.23;15.73;;;-1.40;95.90;;;;;;4981323;28;20208;-82
2023/01/23 05:00:09;;;;;;;27.73;16.80;;;-1.40;95.80;;;;;;4982138;28;20206;-82
2023/01/23 05:02:36;;;;;;;28.10;16.37;;;-1.30;96.00;;;;;;4981771;28;20242;-82
2023/01/23 05:05:03;;;;;;;24.13;16.10;;;-1.20;95.70;;;;;;4989842;28;20213;-82
2023/01/23 05:07:29;;;;;;;23.77;15.83;;;-1.20;95.50;;;;;;4987417;28;20509;-82
2023/01/23 05:09:56;;;;;;;24.57;15.60;;;-1.30;95.30;;;;;;4977495;28;20219;-82
2023/01/23 05:12:24;;;;;;;25.80;16.17;;;-1.30;95.60;;;;;;4983529;28;20213;-81
2023/01/23 05:14:51;;;;;;;25.47;16.27;;;-1.30;95.40;;;;;;4984782;28;20219;-82
2023/01/23 05:17:18;;;;;;;24.40;16.13;;;-1.20;95.40;;;;;;4985502;28;20676;-82
2023/01/23 05:19:45;;;;;;;25.70;16.63;;;-1.30;95.40;;;;;;4994260;28;20289;-82
2023/01/23 05:22:12;;;;;;;24.87;15.67;;;-1.30;95.50;;;;;;4989208;28;20311;-81
2023/01/23 05:24:39;;;;;;;27.47;16.50;;;-1.30;95.40;;;;;;4986900;28;20246;-82
2023/01/23 05:27:07;;;;;;;23.80;15.40;;;-1.40;95.50;;;;;;4994021;28;20204;-82
2023/01/23 05:29:35;;;;;;;26.83;16.30;;;-1.40;95.60;;;;;;4982186;28;20219;-82
2023/01/23 05:32:02;;;;;;;24.60;15.37;;;-1.40;95.40;;;;;;4984902;28;20229;-81
2023/01/23 05:34:29;;;;;;;24.00;15.10;;;-1.40;95.40;;;;;;4984469;28;20210;-82
2023/01/23 05:36:56;;;;;;;24.47;15.17;;;-1.50;95.50;;;;;;4989572;28;20213;-81
2023/01/23 05:39:23;;;;;;;26.07;16.93;;;-1.50;95.70;;;;;;4986657;28;20212;-82
2023/01/23 05:41:50;;;;;;;25.27;15.53;;;-1.50;95.80;;;;;;4993840;28;20236;-81
2023/01/23 05:44:17;;;;;;;26.20;16.13;;;-1.50;96.10;;;;;;4988144;28;20249;-82
2023/01/23 05:46:45;;;;;;;25.33;16.47;;;-1.40;95.60;;;;;;4980539;28;20259;-82
2023/01/23 05:49:12;;;;;;;26.00;15.63;;;-1.50;95.40;;;;;;4982973;28;20209;-81
2023/01/23 05:51:38;;;;;;;25.33;15.80;;;-1.50;95.50;;;;;;4981656;28;20583;-80
2023/01/23 05:54:05;;;;;;;27.00;15.90;;;-1.50;95.70;;;;;;4982288;28;20239;-80
2023/01/23 05:56:32;;;;;;;23.83;15.00;;;-1.50;95.90;;;;;;4984518;28;20216;-81
2023/01/23 05:58:59;;;;;;;25.47;16.07;;;-1.50;95.80;;;;;;4985841;28;20217;-80
2023/01/23 06:01:26;;;;;;;24.07;15.50;;;-1.50;95.60;;;;;;4978279;28;20218;-79
2023/01/23 06:03:54;;;;;;;25.83;16.00;;;-1.50;95.80;;;;;;4986858;28;20203;-80
2023/01/23 06:06:21;;;;;;;32.70;16.47;;;-1.60;95.90;;;;;;4982919;28;20201;-80
2023/01/23 06:08:47;;;;;;;28.47;16.03;;;-1.60;96.30;;;;;;4984216;28;20203;-80
2023/01/23 06:11:14;;;;;;;24.77;15.37;;;-1.50;96.30;;;;;;4984256;28;20197;-80
2023/01/23 06:13:41;;;;;;;23.80;15.23;;;-1.50;96.30;;;;;;4984458;28;20203;-81
2023/01/23 06:16:08;;;;;;;22.57;15.37;;;-1.40;95.90;;;;;;4993617;28;20323;-80
2023/01/23 06:18:35;;;;;;;24.73;15.73;;;-1.30;95.60;;;;;;4986482;28;20203;-80
2023/01/23 06:21:04;;;;;;;25.90;16.60;;;-1.20;95.60;;;;;;4978944;28;20286;-79
2023/01/23 06:23:31;;;;;;;26.60;16.73;;;-1.20;95.30;;;;;;4971796;28;20232;-81
2023/01/23 06:26:02;;;;;;;24.10;15.90;;;-1.20;95.60;;;;;;4982292;28;20235;-81
2023/01/23 06:28:29;;;;;;;23.57;15.63;;;-1.20;95.40;;;;;;4984533;28;20208;-78
2023/01/23 06:31:00;;;;;;;25.37;16.77;;;-1.20;95.50;;;;;;4972810;28;20207;-81
2023/01/23 06:33:27;;;;;;;25.90;15.83;;;-1.20;95.80;;;;;;4980585;28;20593;-89
2023/01/23 06:35:57;;;;;;;26.57;17.50;;;-1.20;95.80;;;;;;4985635;28;20706;-79
2023/01/23 06:38:26;;;;;;;30.53;17.00;;;-1.30;95.50;;;;;;4978456;28;20207;-81
2023/01/23 06:40:53;;;;;;;29.90;17.73;;;-1.30;95.80;;;;;;4972442;28;20204;-81
2023/01/23 06:43:20;;;;;;;29.77;17.83;;;-1.30;96.20;;;;;;4976151;28;20246;-79
2023/01/23 06:45:48;;;;;;;29.13;18.40;;;-1.40;96.30;;;;;;4974780;28;20222;-81
2023/01/23 06:48:15;;;;;;;29.93;18.83;;;-1.30;96.50;;;;;;4982844;28;20196;-81
2023/01/23 06:50:43;;;;;;;32.37;19.87;;;-1.30;96.70;;;;;;4977244;28;20206;-82
2023/01/23 06:53:13;;;;;;;33.10;20.13;;;-1.30;96.90;;;;;;4976254;28;20270;-82
2023/01/23 06:55:41;;;;;;;39.70;21.57;;;-1.20;97.00;;;;;;4982644;28;20672;-83
2023/01/23 06:58:08;;;;;;;44.80;22.97;;;-1.20;97.10;;;;;;4974275;28;20218;-84
2023/01/23 07:00:35;;;;;;;41.83;22.77;;;-1.20;97.30;;;;;;4976664;28;20210;-81
2023/01/23 07:03:02;;;;;;;44.07;23.00;;;-1.10;97.60;;;;;;4973805;28;21247;-82
2023/01/23 07:05:29;;;;;;;48.57;23.87;;;-1.20;97.70;;;;;;4974443;28;20291;-81
2023/01/23 07:07:56;;;;;;;51.33;24.37;;;-1.10;97.90;;;;;;4980830;28;22443;-82
2023/01/23 07:10:25;;;;;;;51.00;24.30;;;-1.10;98.20;;;;;;4979489;28;20652;-82
2023/01/23 07:12:53;;;;;;;46.43;23.77;;;-1.10;98.70;;;;;;4979570;28;20662;-82
2023/01/23 07:15:20;;;;;;;56.13;24.80;;;-1.00;98.70;;;;;;4974403;28;20208;-82
2023/01/23 07:17:46;;;;;;;56.37;25.73;;;-1.10;99.00;;;;;;4973865;28;20204;-80
2023/01/23 07:20:14;;;;;;;55.77;24.50;;;-1.00;99.00;;;;;;4977926;28;20206;-82
2023/01/23 07:22:41;;;;;;;67.13;26.47;;;-1.00;99.00;;;;;;4975693;28;20230;-81
2023/01/23 07:25:09;;;;;;;53.70;24.83;;;-1.00;99.00;;;;;;4973649;28;20588;-81
2023/01/23 07:27:35;;;;;;;57.17;26.53;;;-1.00;99.00;;;;;;4974864;28;20280;-82
2023/01/23 07:30:05;;;;;;;55.93;25.53;;;-1.00;99.00;;;;;;4974942;28;20655;-81
2023/01/23 07:32:31;;;;;;;54.63;24.17;;;-1.00;99.00;;;;;;4968349;28;20211;-81
2023/01/23 07:34:58;;;;;;;50.60;23.70;;;-0.90;99.00;;;;;;4973949;28;20218;-80
2023/01/23 07:37:26;;;;;;;53.03;25.00;;;-0.90;99.00;;;;;;4973342;28;20673;-82
2023/01/23 07:39:53;;;;;;;56.47;24.23;;;-0.90;99.00;;;;;;4976345;28;20206;-81
2023/01/23 07:42:20;;;;;;;49.03;23.80;;;-0.90;99.00;;;;;;4971243;28;20249;-82
2023/01/23 07:44:46;;;;;;;52.60;23.53;;;-0.90;99.00;;;;;;4977152;28;20342;-82
2023/01/23 07:47:15;;;;;;;58.77;24.33;;;-1.00;99.00;;;;;;4976983;28;20200;-83
2023/01/23 07:49:41;;;;;;;92.67;24.70;;;-0.90;99.60;;;;;;4981023;28;20217;-83
2023/01/23 07:52:08;;;;;;;74.30;24.83;;;-0.90;99.30;;;;;;4988363;28;20205;-83
2023/01/23 07:54:35;;;;;;;57.63;24.57;;;-0.90;99.40;;;;;;4985155;28;20202;-83
2023/01/23 07:57:02;;;;;;;60.57;24.07;;;-0.90;99.70;;;;;;4984896;28;20324;-83
2023/01/23 07:59:29;;;;;;;81.50;25.47;;;-0.90;99.90;;;;;;4978625;28;20562;-82
2023/01/23 08:01:56;;;;;;;84.20;25.40;;;-0.90;99.90;;;;;;4989105;28;20208;-82
2023/01/23 08:04:24;;;;;;;47.37;23.37;;;-0.90;99.90;;;;;;4977890;28;20208;-82
2023/01/23 08:06:51;;;;;;;55.80;24.50;;;-0.90;99.90;;;;;;4989187;28;20656;-83
2023/01/23 08:09:18;;;;;;;48.97;23.03;;;-0.80;99.90;;;;;;4980615;28;20250;-83
2023/01/23 08:11:45;;;;;;;47.23;23.17;;;-0.80;99.90;;;;;;4988811;28;20196;-83
2023/01/23 08:14:11;;;;;;;47.17;22.67;;;-0.80;99.90;;;;;;4989805;28;20580;-84
2023/01/23 08:16:38;;;;;;;50.77;23.27;;;-0.80;99.90;;;;;;4985872;28;20234;-84
2023/01/23 08:19:07;;;;;;;41.47;20.73;;;-0.80;99.90;;;;;;4981779;28;20207;-84
2023/01/23 08:21:35;;;;;;;46.97;22.77;;;-0.70;99.90;;;;;;4982938;28;20212;-84
2023/01/23 08:24:03;;;;;;;43.73;22.40;;;-0.70;99.90;;;;;;4982414;28;20704;-84
2023/01/23 08:26:30;;;;;;;41.20;22.00;;;-0.60;99.90;;;;;;4979324;28;20580;-83
2023/01/23 08:28:57;;;;;;;42.00;20.73;;;-0.60;99.90;;;;;;4980789;28;20211;-81
2023/01/23 08:31:24;;;;;;;43.77;21.70;;;-0.50;99.60;;;;;;4977379;28;20200;-83
2023/01/23 08:33:50;;;;;;;42.13;20.93;;;-0.60;99.80;;;;;;4977100;28;20224;-83
2023/01/23 08:36:17;;;;;;;47.50;20.97;;;-0.50;99.60;;;;;;4979075;28;20522;-81
2023/01/23 08:38:46;;;;;;;37.63;19.57;;;-0.50;99.80;;;;;;4980574;28;20204;-82
2023/01/23 08:41:12;;;;;;;35.87;19.03;;;-0.40;99.60;;;;;;4983174;28;20234;-82
2023/01/23 08:43:40;;;;;;;32.70;17.97;;;-0.30;99.10;;;;;;4985551;28;20229;-80
2023/01/23 08:46:07;;;;;;;33.57;18.27;;;-0.20;99.10;;;;;;4983998;28;20217;-81
2023/01/23 08:48:35;;;;;;;33.93;17.37;;;-0.20;99.10;;;;;;4978561;28;20532;-83
2023/01/23 08:51:04;;;;;;;33.00;18.23;;;-0.10;99.20;;;;;;4979430;28;20201;-79
2023/01/23 08:53:32;;;;;;;38.10;17.43;;;-0.10;99.20;;;;;;4982030;28;20210;-79
2023/01/23 08:56:02;;;;;;;29.27;17.30;;;-0.10;98.80;;;;;;4978538;28;20208;-80
2023/01/23 08:58:28;;;;;;;28.37;16.57;;;0.00;99.10;;;;;;4985871;28;20571;-81
2023/01/23 09:00:56;;;;;;;29.37;16.53;;;0.10;98.50;;;;;;4982685;28;20839;-80
2023/01/23 09:03:23;;;;;;;29.33;17.10;;;0.10;98.50;;;;;;4983538;28;20701;-81
2023/01/23 09:05:49;;;;;;;30.13;17.27;;;0.10;98.50;;;;;;4989326;28;20580;-83
2023/01/23 09:08:16;;;;;;;33.43;17.10;;;0.10;98.40;;;;;;4988469;28;20207;-80
2023/01/23 09:10:43;;;;;;;31.33;18.33;;;0.10;98.40;;;;;;4987141;28;20227;-80
2023/01/23 09:13:12;;;;;;;30.87;17.77;;;0.20;98.30;;;;;;4981796;28;20566;-79
2023/01/23 09:15:39;;;;;;;26.40;16.43;;;0.20;98.30;;;;;;4977722;28;20236;-80
2023/01/23 09:18:06;;;;;;;28.67;17.50;;;0.30;98.20;;;;;;4983452;28;20547;-81
2023/01/23 09:20:33;;;;;;;30.40;17.17;;;0.30;98.00;;;;;;4980397;28;20201;-81
2023/01/23 09:23:00;;;;;;;29.90;17.50;;;0.40;98.00;;;;;;4985290;28;20227;-80
2023/01/23 09:25:30;;;;;;;29.37;16.60;;;0.40;97.80;;;;;;4982165;28;20215;-81
2023/01/23 09:27:56;;;;;;;28.70;17.10;;;0.40;97.80;;;;;;4979104;28;20210;-79
2023/01/23 09:30:25;;;;;;;27.23;16.97;;;0.50;97.70;;;;;;4974090;28;21392;-80
2023/01/23 09:32:53;;;;;;;29.00;17.00;;;0.50;97.50;;;;;;4987622;28;20208;-81
2023/01/23 09:35:22;;;;;;;29.33;17.87;;;0.60;97.70;;;;;;4990801;28;20640;-84
2023/01/23 09:38:00;;;;;;;29.17;16.90;;;0.60;97.60;;;;;;4990230;28;20205;-85
2023/01/23 09:40:30;;;;;;;26.07;16.10;;;0.50;97.70;;;;;;4985138;28;20254;-83
2023/01/23 09:46:26;;;;;;;29.67;17.27;;;0.70;97.00;;;;;;4987331;28;20861;-82
2023/01/23 09:49:00;;;;;;;27.87;16.80;;;0.60;96.90;;;;;;4980943;28;20672;-83
2023/01/23 09:51:34;;;;;;;25.80;16.23;;;0.60;97.10;;;;;;4982176;28;20265;-81
2023/01/23 09:54:11;;;;;;;29.23;17.33;;;0.70;96.90;;;;;;4983625;28;20668;-83
2023/01/23 09:56:43;;;;;;;27.23;17.67;;;0.70;97.20;;;;;;4973841;28;20200;-79
2023/01/23 09:59:17;;;;;;;28.33;16.80;;;0.70;96.80;;;;;;4979842;28;20598;-82
2023/01/23 10:01:45;;;;;;;26.27;16.53;;;0.70;97.20;;;;;;4979242;28;20299;-82
2023/01/23 10:04:13;;;;;;;27.70;16.87;;;0.70;97.00;;;;;;4986375;28;20786;-78
2023/01/23 10:06:55;;;;;;;27.07;16.27;;;0.70;97.10;;;;;;4984403;28;20196;-82
2023/01/23 10:09:55;;;;;;;30.57;17.50;;;0.80;96.80;;;;;;4991111;28;20216;-82
2023/01/23 10:12:32;;;;;;;27.03;16.40;;;0.90;96.80;;;;;;4978605;28;20218;-81
2023/01/23 10:15:15;;;;;;;27.73;16.70;;;1.00;96.50;;;;;;4980933;28;20693;-84
2023/01/23 10:17:54;;;;;;;23.47;15.40;;;1.10;96.30;;;;;;4984581;28;20684;-83
2023/01/23 10:20:40;;;;;;;24.50;15.73;;;1.10;96.00;;;;;;4983922;28;20214;-85
2023/01/23 10:23:19;;;;;;;27.33;16.90;;;1.00;96.20;;;;;;4985547;28;20231;-84
2023/01/23 10:25:48;;;;;;;27.13;16.90;;;1.00;96.10;;;;;;4988690;28;20233;-84
2023/01/23 10:28:26;;;;;;;27.30;17.00;;;0.90;95.90;;;;;;4979165;28;20201;-83
2023/01/23 10:30:59;;;;;;;27.53;17.00;;;0.90;96.10;;;;;;4987407;28;20261;-83
2023/01/23 10:33:34;;;;;;;28.63;17.50;;;0.80;96.20;;;;;;4980525;28;20206;-81
2023/01/23 10:36:05;;;;;;;30.07;18.80;;;0.80;96.30;;;;;;4989277;28;20195;-84
2023/01/23 10:38:39;;;;;;;31.50;17.77;;;1.00;96.40;;;;;;4982148;28;20204;-85
2023/01/23 10:41:14;;;;;;;29.50;17.73;;;1.00;96.10;;;;;;4986515;28;20198;-84
2023/01/23 10:43:42;;;;;;;29.50;17.80;;;1.10;95.90;;;;;;4979062;28;20249;-86
2023/01/23 10:46:12;;;;;;;31.40;18.43;;;1.20;95.80;;;;;;4983068;28;20572;-84
2023/01/23 10:48:43;;;;;;;29.67;18.13;;;1.20;95.60;;;;;;4977107;28;20668;-83
2023/01/23 10:51:31;;;;;;;32.97;19.00;;;1.20;95.80;;;;;;4982061;28;20642;-83
2023/01/23 10:54:06;;;;;;;29.93;17.13;;;1.10;95.70;;;;;;4985273;28;20219;-83
2023/01/23 10:56:35;;;;;;;31.13;18.50;;;1.20;95.80;;;;;;4989009;28;20214;-83
2023/01/23 10:59:03;;;;;;;31.20;18.80;;;1.30;95.70;;;;;;4987196;28;20307;-84
2023/01/23 11:01:32;;;;;;;32.50;18.70;;;1.40;95.50;;;;;;4982318;28;20196;-84
2023/01/23 11:04:10;;;;;;;30.43;18.27;;;1.50;95.50;;;;;;4983138;28;20234;-83
2023/01/23 11:06:37;;;;;;;31.60;18.47;;;1.60;95.10;;;;;;4982287;28;20196;-83
2023/01/23 11:09:09;;;;;;;29.37;17.73;;;1.70;95.10;;;;;;4982618;28;20205;-83
2023/01/23 11:11:36;;;;;;;31.33;18.50;;;1.80;94.70;;;;;;4986641;28;20196;-84
2023/01/23 11:14:08;;;;;;;31.40;18.00;;;1.90;94.40;;;;;;4982712;28;20207;-83
2023/01/23 11:16:36;;;;;;;29.80;18.43;;;1.90;94.40;;;;;;4981989;28;20287;-82
2023/01/23 11:19:16;;;;;;;38.60;19.33;;;2.00;94.00;;;;;;4987738;28;20192;-79
2023/01/23 11:21:52;;;;;;;31.90;18.67;;;2.00;94.40;;;;;;4983591;28;20250;-81
2023/01/23 11:24:21;;;;;;;29.47;19.10;;;2.20;94.50;;;;;;4975453;28;20230;-81
2023/01/23 11:26:57;;;;;;;30.27;17.87;;;2.20;93.90;;;;;;4974991;28;20208;-81
2023/01/23 11:29:26;;;;;;;29.30;17.90;;;2.10;94.30;;;;;;4966460;28;20743;-81
2023/01/23 11:31:58;;;;;;;32.03;18.37;;;2.00;94.40;;;;;;4983827;28;20239;-82
2023/01/23 11:34:33;;;;;;;29.37;17.93;;;2.00;94.40;;;;;;4983132;28;20216;-82
2023/01/23 11:37:09;;;;;;;29.97;18.43;;;1.80;94.90;;;;;;4981277;28;20207;-82
2023/01/23 11:39:47;;;;;;;29.37;18.00;;;1.70;95.00;;;;;;4984065;28;20192;-82
2023/01/23 11:42:14;;;;;;;29.27;17.40;;;1.70;95.50;;;;;;4985907;28;20199;-83
2023/01/23 11:44:42;;;;;;;31.37;18.40;;;1.60;95.60;;;;;;4981044;28;20285;-83
2023/01/23 11:47:40;;;;;;;32.10;19.33;;;1.60;96.20;;;;;;4980145;28;20208;-83
2023/01/23 11:50:19;;;;;;;31.13;18.30;;;1.50;96.10;;;;;;4978547;28;20916;-84
2023/01/23 11:52:55;;;;;;;30.00;17.93;;;1.50;96.10;;;;;;4978646;28;20724;-84
2023/01/23 11:55:52;;;;;;;31.80;18.70;;;1.60;95.90;;;;;;4975823;28;20204;-82
2023/01/23 11:58:36;;;;;;;32.30;19.03;;;1.60;95.90;;;;;;4982970;28;20208;-83
2023/01/23 12:01:12;;;;;;;28.43;17.90;;;1.70;96.10;;;;;;4967647;28;20200;-83
2023/01/23 12:04:16;;;;;;;30.10;18.20;;;1.70;96.10;;;;;;4980889;28;20603;-83
2023/01/23 12:07:02;;;;;;;32.50;19.17;;;1.60;96.10;;;;;;4983618;28;20214;-82
2023/01/23 12:09:40;;;;;;;32.87;19.00;;;1.60;97.00;;;;;;4974922;28;20203;-82
2023/01/23 12:12:17;;;;;;;28.40;17.70;;;1.60;97.20;;;;;;4984410;28;20671;-83
2023/01/23 12:14:51;;;;;;;27.33;17.03;;;1.80;96.40;;;;;;4987836;28;20200;-82
2023/01/23 12:17:27;;;;;;;29.57;17.90;;;1.90;95.80;;;;;;4988161;28;20229;-83
2023/01/23 12:20:03;;;;;;;27.80;18.90;;;2.10;95.20;;;;;;4982844;28;20203;-84
2023/01/23 12:22:43;;;;;;;25.70;16.83;;;2.10;95.20;;;;;;4983554;28;20216;-83
2023/01/23 12:25:22;;;;;;;26.47;16.97;;;2.10;94.80;;;;;;4979084;28;20218;-85
2023/01/23 12:27:56;;;;;;;26.90;17.07;;;2.10;94.50;;;;;;4984767;28;20200;-81
2023/01/23 12:31:03;;;;;;;29.00;18.13;;;2.10;94.50;;;;;;4991925;28;20195;-81
2023/01/23 12:33:47;;;;;;;28.10;17.03;;;2.10;94.50;;;;;;4947390;28;20223;-79
2023/01/23 12:36:24;;;;;;;27.30;17.00;;;2.10;94.50;;;;;;4980947;28;20193;-82
2023/01/23 12:39:04;;;;;;;28.07;16.73;;;2.00;94.70;;;;;;4986877;28;20208;-84
2023/01/23 12:41:36;;;;;;;27.27;16.40;;;2.10;94.50;;;;;;4985733;28;20196;-84
2023/01/23 12:44:13;;;;;;;25.73;16.53;;;2.20;94.50;;;;;;4985610;28;20255;-85
2023/01/23 12:46:45;;;;;;;24.97;17.17;;;2.20;94.50;;;;;;4983914;28;20199;-84
2023/01/23 12:49:23;;;;;;;25.50;16.83;;;2.10;94.50;;;;;;4987179;28;20642;-83
2023/01/23 12:51:57;;;;;;;26.03;16.10;;;2.20;94.50;;;;;;4979107;28;20204;-83
2023/01/23 12:54:35;;;;;;;26.57;17.57;;;2.10;94.70;;;;;;4986352;28;20209;-83